KRUQ

Mid-Carolina Regional Airport

Salisbury, North Carolina, USA
METAR KRUQ 231055Z AUTO 21006KT 10SM SCT008 OVC015 16/16 A2976 RMK AO2 P0001 T01550155
Observed Flight Rules
Jan-23 @ 10:55 UTC (an hour ago) Marginal Visual Flight Rules
Wind Visibility Clouds
210° at 6 knots 10 miles
  • Scattered at 800' AGL
  • Overcast at 1,500' AGL
Temperatures Readings Precipitation
Current 16°C / 61°F
Dewpoint 16°C / 61°F
Humidity 100%
Altimeter 29.76" Hg
Pressure 1008 hPa
Elevation 236
Current Rain 0.01
METAR KRUQ 231055Z AUTO 21006KT 10SM SCT008 OVC015 16/16 A2976 RMK AO2 P0001 T01550155
Observed Flight Rules
Jan-23 @ 10:55 UTC
(an hour ago)
MVFR
Wind Visibility
210° at 6 knots 10 miles
Clouds
  • Scattered at 800' AGL
  • Overcast at 1,500' AGL
Temperature Dewpoint
16°C / 61°F 16°C / 61°F
Humidity Altimeter Pressure
100% 29.76" Hg 1008 hPa
Current Rain
0.01